createdAt,value
2018-06-18T00:00:37.366Z,8.00
2018-06-18T00:01:37.369Z,8.00
2018-06-18T00:02:37.374Z,8.00
2018-06-18T00:03:37.380Z,8.00
2018-06-18T00:04:37.379Z,8.00
2018-06-18T00:05:37.381Z,8.00
2018-06-18T00:06:37.384Z,8.00
2018-06-18T00:07:37.390Z,8.00
2018-06-18T00:08:37.388Z,8.00
2018-06-18T00:09:37.394Z,8.00
2018-06-18T00:10:37.393Z,8.00
2018-06-18T00:11:37.397Z,8.00
2018-06-18T00:12:37.398Z,8.00
2018-06-18T00:13:37.400Z,8.00
2018-06-18T00:14:37.402Z,8.00
2018-06-18T00:15:37.422Z,4.00
2018-06-18T00:16:37.407Z,8.00
2018-06-18T00:17:37.410Z,8.00
2018-06-18T00:18:37.411Z,8.00
2018-06-18T00:19:37.418Z,4.00
2018-06-18T00:20:37.415Z,8.00
2018-06-18T00:21:37.418Z,8.00
2018-06-18T00:22:37.422Z,8.00
2018-06-18T00:23:37.424Z,8.00
2018-06-18T00:24:37.425Z,8.00
2018-06-18T00:25:37.431Z,8.00
2018-06-18T00:26:37.430Z,8.00
2018-06-18T00:27:37.444Z,8.00
2018-06-18T00:28:37.434Z,8.00
2018-06-18T00:29:37.437Z,8.00
2018-06-18T00:30:37.440Z,4.00
2018-06-18T00:31:37.441Z,4.00
2018-06-18T00:32:37.443Z,4.00
2018-06-18T00:33:37.446Z,4.00
2018-06-18T00:34:37.449Z,4.00
2018-06-18T00:35:37.452Z,4.00
2018-06-18T00:36:37.453Z,4.00
2018-06-18T00:37:37.456Z,4.00
2018-06-18T00:38:37.460Z,4.00
2018-06-18T00:39:37.463Z,4.00
2018-06-18T00:40:37.463Z,4.00
2018-06-18T00:41:37.464Z,4.00
2018-06-18T00:42:37.468Z,4.00
2018-06-18T00:43:37.472Z,4.00
2018-06-18T00:44:37.471Z,4.00
2018-06-18T00:45:37.475Z,4.00
2018-06-18T00:46:37.476Z,4.00
2018-06-18T00:47:37.478Z,4.00
2018-06-18T00:48:37.482Z,4.00
2018-06-18T00:49:37.483Z,4.00
2018-06-18T00:50:37.485Z,4.00
2018-06-18T00:51:37.492Z,4.00
2018-06-18T00:52:37.491Z,4.00
2018-06-18T00:53:37.492Z,4.00
2018-06-18T00:54:37.496Z,4.00
2018-06-18T00:55:37.497Z,4.00
2018-06-18T00:56:37.502Z,4.00
2018-06-18T00:57:37.501Z,4.00
2018-06-18T00:58:37.504Z,4.00
2018-06-18T00:59:37.505Z,4.00
2018-06-18T01:00:37.508Z,4.00
2018-06-18T01:01:37.510Z,4.00
2018-06-18T01:02:37.512Z,4.00
2018-06-18T01:03:37.517Z,4.00
2018-06-18T01:04:37.517Z,4.00
2018-06-18T01:05:37.520Z,4.00
2018-06-18T01:06:37.523Z,4.00
2018-06-18T01:07:37.528Z,4.00
2018-06-18T01:08:37.525Z,4.00
2018-06-18T01:09:37.528Z,4.00
2018-06-18T01:10:37.530Z,4.00
2018-06-18T01:11:37.534Z,4.00
2018-06-18T01:12:37.539Z,4.00
2018-06-18T01:13:37.537Z,4.00
2018-06-18T01:14:37.540Z,4.00
2018-06-18T01:15:37.543Z,4.00
2018-06-18T01:16:37.545Z,4.00
2018-06-18T01:17:37.545Z,4.00
2018-06-18T01:18:37.549Z,4.00
2018-06-18T01:19:37.551Z,4.00
2018-06-18T01:20:37.556Z,4.00
2018-06-18T01:21:37.561Z,4.00
2018-06-18T01:22:37.565Z,4.00
2018-06-18T01:23:37.561Z,4.00
2018-06-18T01:24:37.563Z,4.00
2018-06-18T01:25:37.565Z,4.00
2018-06-18T01:26:37.567Z,4.00
2018-06-18T01:27:37.570Z,4.00
2018-06-18T01:28:37.571Z,4.00
2018-06-18T01:29:37.578Z,4.00
2018-06-18T01:30:37.580Z,4.00
2018-06-18T01:31:37.585Z,4.00
2018-06-18T01:32:37.581Z,4.00
2018-06-18T01:33:37.584Z,4.00
2018-06-18T01:34:37.588Z,4.00
2018-06-18T01:35:37.589Z,4.00
2018-06-18T01:36:37.603Z,4.00
2018-06-18T01:37:37.602Z,4.00
2018-06-18T01:38:37.597Z,4.00
2018-06-18T01:39:37.606Z,4.00
2018-06-18T01:40:37.600Z,4.00
2018-06-18T01:41:37.603Z,4.00
2018-06-18T01:42:37.604Z,4.00
2018-06-18T01:43:37.608Z,4.00
2018-06-18T01:44:37.609Z,4.00
2018-06-18T01:45:37.611Z,4.00
2018-06-18T01:46:37.614Z,4.00
2018-06-18T01:47:37.629Z,4.00
2018-06-18T01:48:37.618Z,4.00
2018-06-18T01:49:37.624Z,4.00
2018-06-18T01:50:37.623Z,4.00
2018-06-18T01:51:37.628Z,4.00
2018-06-18T01:52:39.198Z,4.00
2018-06-18T01:53:37.631Z,4.00
2018-06-18T01:54:37.634Z,4.00
2018-06-18T01:55:37.634Z,4.00
2018-06-18T01:56:37.638Z,4.00
2018-06-18T01:57:37.641Z,4.00
2018-06-18T01:58:37.643Z,4.00
2018-06-18T01:59:37.646Z,4.00
2018-06-18T02:00:37.647Z,4.00
2018-06-18T02:01:37.649Z,4.00
2018-06-18T02:02:37.652Z,4.00
2018-06-18T02:03:37.655Z,4.00
2018-06-18T02:04:37.656Z,4.00
2018-06-18T02:05:37.659Z,4.00
2018-06-18T02:06:37.661Z,4.00
2018-06-18T02:07:37.664Z,8.00
2018-06-18T02:08:37.672Z,8.00
2018-06-18T02:09:37.670Z,8.00
2018-06-18T02:10:37.671Z,8.00
2018-06-18T02:11:37.674Z,8.00
2018-06-18T02:12:37.674Z,8.00
2018-06-18T02:13:37.678Z,8.00
2018-06-18T02:14:37.684Z,8.00
2018-06-18T02:15:37.683Z,8.00
2018-06-18T02:16:37.688Z,8.00
2018-06-18T02:17:37.687Z,8.00
2018-06-18T02:18:37.696Z,8.00
2018-06-18T02:19:37.693Z,8.00
2018-06-18T02:20:37.693Z,8.00
2018-06-18T02:21:37.699Z,8.00
2018-06-18T02:22:37.700Z,8.00
2018-06-18T02:23:37.701Z,8.00
2018-06-18T02:24:37.703Z,8.00
2018-06-18T02:25:37.705Z,8.00
2018-06-18T02:26:37.707Z,4.00
2018-06-18T02:27:37.710Z,4.00
2018-06-18T02:28:37.712Z,8.00
2018-06-18T02:29:37.716Z,8.00
2018-06-18T02:30:37.718Z,8.00
2018-06-18T02:31:37.722Z,8.00
2018-06-18T02:32:37.723Z,8.00
2018-06-18T02:33:37.723Z,8.00
2018-06-18T02:34:37.730Z,12.00
2018-06-18T02:35:37.732Z,12.00
2018-06-18T02:36:37.733Z,8.00
2018-06-18T02:37:37.731Z,12.00
2018-06-18T02:38:37.736Z,8.00
2018-06-18T02:39:37.737Z,8.00
2018-06-18T02:40:37.738Z,12.00
2018-06-18T02:41:37.743Z,12.00
2018-06-18T02:42:37.744Z,12.00
2018-06-18T02:43:37.747Z,12.00
2018-06-18T02:44:37.755Z,16.00
2018-06-18T02:45:37.753Z,16.00
2018-06-18T02:46:37.755Z,20.00
2018-06-18T02:47:37.754Z,20.00
2018-06-18T02:48:37.757Z,20.00
2018-06-18T02:49:37.759Z,20.00
2018-06-18T02:50:37.769Z,24.00
2018-06-18T02:51:37.764Z,24.00
2018-06-18T02:52:37.763Z,28.00
2018-06-18T02:53:37.769Z,28.00
2018-06-18T02:54:37.770Z,28.00
2018-06-18T02:55:37.771Z,28.00
2018-06-18T02:56:37.772Z,32.00
2018-06-18T02:57:37.775Z,36.00
2018-06-18T02:58:37.779Z,40.00
2018-06-18T02:59:37.780Z,44.00
2018-06-18T03:00:37.783Z,48.00
2018-06-18T03:01:37.788Z,52.00
2018-06-18T03:02:37.787Z,56.00
2018-06-18T03:03:37.789Z,64.00
2018-06-18T03:04:37.793Z,68.00
2018-06-18T03:05:37.791Z,68.00
2018-06-18T03:06:37.795Z,72.00
2018-06-18T03:07:37.799Z,80.00
2018-06-18T03:08:37.797Z,84.00
2018-06-18T03:09:37.816Z,88.00
2018-06-18T03:10:37.802Z,96.00
2018-06-18T03:11:37.807Z,100.00
2018-06-18T03:12:37.807Z,104.00
2018-06-18T03:13:37.808Z,108.00
2018-06-18T03:14:37.809Z,108.00
2018-06-18T03:15:37.814Z,112.00
2018-06-18T03:16:37.813Z,120.00
2018-06-18T03:17:37.815Z,124.00
2018-06-18T03:18:37.817Z,132.00
2018-06-18T03:19:37.821Z,140.00
2018-06-18T03:20:37.825Z,152.00
2018-06-18T03:21:37.822Z,160.00
2018-06-18T03:22:37.833Z,168.00
2018-06-18T03:23:37.828Z,172.00
2018-06-18T03:24:37.830Z,172.00
2018-06-18T03:25:37.839Z,172.00
2018-06-18T03:26:37.833Z,172.00
2018-06-18T03:27:37.835Z,168.00
2018-06-18T03:28:37.836Z,172.00
2018-06-18T03:29:37.841Z,180.00
2018-06-18T03:30:37.843Z,176.00
2018-06-18T03:31:37.844Z,180.00
2018-06-18T03:32:37.844Z,176.00
2018-06-18T03:33:37.846Z,184.00
2018-06-18T03:34:37.849Z,192.00
2018-06-18T03:35:37.851Z,196.00
2018-06-18T03:36:37.852Z,208.00
2018-06-18T03:37:37.873Z,220.00
2018-06-18T03:38:37.856Z,236.00
2018-06-18T03:39:37.859Z,256.00
2018-06-18T03:40:37.859Z,276.00
2018-06-18T03:41:37.862Z,296.00
2018-06-18T03:42:37.864Z,332.00
2018-06-18T03:43:37.869Z,352.00
2018-06-18T03:44:37.868Z,368.00
2018-06-18T03:45:37.875Z,376.00
2018-06-18T03:46:37.872Z,372.00
2018-06-18T03:47:37.880Z,372.00
2018-06-18T03:48:37.882Z,368.00
2018-06-18T03:49:37.880Z,388.00
2018-06-18T03:50:37.888Z,412.00
2018-06-18T03:51:37.884Z,424.00
2018-06-18T03:52:37.884Z,424.00
2018-06-18T03:53:37.886Z,420.00
2018-06-18T03:54:37.890Z,412.00
2018-06-18T03:55:37.890Z,400.00
2018-06-18T03:56:37.892Z,376.00
2018-06-18T03:57:37.896Z,348.00
2018-06-18T03:58:37.900Z,336.00
2018-06-18T03:59:37.899Z,332.00
2018-06-18T04:00:37.900Z,336.00
2018-06-18T04:01:37.902Z,344.00
2018-06-18T04:02:37.906Z,344.00
2018-06-18T04:03:37.907Z,336.00
2018-06-18T04:04:37.909Z,344.00
2018-06-18T04:05:37.988Z,344.00
2018-06-18T04:06:37.914Z,336.00
2018-06-18T04:07:37.917Z,320.00
2018-06-18T04:08:37.917Z,312.00
2018-06-18T04:09:37.956Z,304.00
2018-06-18T04:10:37.926Z,304.00
2018-06-18T04:11:37.925Z,300.00
2018-06-18T04:12:37.930Z,288.00
2018-06-18T04:13:37.929Z,268.00
2018-06-18T04:14:37.932Z,256.00
2018-06-18T04:15:37.939Z,240.00
2018-06-18T04:16:37.936Z,232.00
2018-06-18T04:17:37.959Z,228.00
2018-06-18T04:18:37.941Z,220.00
2018-06-18T04:19:37.941Z,212.00
2018-06-18T04:20:37.946Z,208.00
2018-06-18T04:21:37.945Z,196.00
2018-06-18T04:22:37.948Z,184.00
2018-06-18T04:23:37.953Z,184.00
2018-06-18T04:24:37.978Z,196.00
2018-06-18T04:25:37.958Z,208.00
2018-06-18T04:26:37.957Z,228.00
2018-06-18T04:27:37.958Z,240.00
2018-06-18T04:28:37.961Z,260.00
2018-06-18T04:29:37.963Z,300.00
2018-06-18T04:30:38.011Z,356.00
2018-06-18T04:31:37.970Z,416.00
2018-06-18T04:32:37.969Z,432.00
2018-06-18T04:33:37.974Z,428.00
2018-06-18T04:34:37.979Z,420.00
2018-06-18T04:35:37.977Z,436.00
2018-06-18T04:36:37.978Z,476.00
2018-06-18T04:37:38.063Z,544.00
2018-06-18T04:38:37.983Z,596.00
2018-06-18T04:39:37.985Z,620.00
2018-06-18T04:40:37.988Z,624.00
2018-06-18T04:41:37.989Z,632.00
2018-06-18T04:42:37.993Z,640.00
2018-06-18T04:43:37.992Z,636.00
2018-06-18T04:44:38.042Z,604.00
2018-06-18T04:45:37.997Z,548.00
2018-06-18T04:46:38.006Z,496.00
2018-06-18T04:47:38.006Z,440.00
2018-06-18T04:48:38.006Z,416.00
2018-06-18T04:49:38.005Z,408.00
2018-06-18T04:50:38.007Z,396.00
2018-06-18T04:51:38.010Z,388.00
2018-06-18T04:52:38.013Z,392.00
2018-06-18T04:53:38.013Z,368.00
2018-06-18T04:54:38.017Z,344.00
2018-06-18T04:55:38.017Z,324.00
2018-06-18T04:56:38.048Z,304.00
2018-06-18T04:57:38.022Z,308.00
2018-06-18T04:58:38.023Z,320.00
2018-06-18T04:59:38.027Z,320.00
2018-06-18T05:00:38.029Z,304.00
2018-06-18T05:01:38.032Z,284.00
2018-06-18T05:02:38.032Z,284.00
2018-06-18T05:03:38.034Z,284.00
2018-06-18T05:04:38.037Z,288.00
2018-06-18T05:05:38.038Z,292.00
2018-06-18T05:06:38.045Z,300.00
2018-06-18T05:07:38.071Z,300.00
2018-06-18T05:08:38.046Z,296.00
2018-06-18T05:09:38.047Z,304.00
2018-06-18T05:10:38.050Z,320.00
2018-06-18T05:11:38.052Z,340.00
2018-06-18T05:12:38.053Z,364.00
2018-06-18T05:13:38.058Z,384.00
2018-06-18T05:14:38.058Z,400.00
2018-06-18T05:15:38.059Z,416.00
2018-06-18T05:16:38.061Z,420.00
2018-06-18T05:17:38.064Z,416.00
2018-06-18T05:18:38.066Z,424.00
2018-06-18T05:19:38.067Z,432.00
2018-06-18T05:20:38.094Z,424.00
2018-06-18T05:21:38.072Z,408.00
2018-06-18T05:22:38.076Z,416.00
2018-06-18T05:23:38.077Z,428.00
2018-06-18T05:24:38.076Z,448.00
2018-06-18T05:25:38.081Z,428.00
2018-06-18T05:26:38.086Z,448.00
2018-06-18T05:27:38.084Z,484.00
2018-06-18T05:28:38.085Z,516.00
2018-06-18T05:29:38.088Z,564.00
2018-06-18T05:30:38.090Z,616.00
2018-06-18T05:31:38.091Z,644.00
2018-06-18T05:32:38.093Z,656.00
2018-06-18T05:33:38.095Z,696.00
2018-06-18T05:34:38.099Z,772.00
2018-06-18T05:35:38.115Z,880.00
2018-06-18T05:36:38.109Z,988.00
2018-06-18T05:37:38.103Z,1016.00
2018-06-18T05:38:38.106Z,1004.00
2018-06-18T05:39:38.111Z,980.00
2018-06-18T05:40:38.111Z,944.00
2018-06-18T05:41:38.167Z,904.00
2018-06-18T05:42:38.116Z,872.00
2018-06-18T05:43:38.115Z,912.00
2018-06-18T05:44:38.117Z,996.00
2018-06-18T05:45:38.120Z,1068.00
2018-06-18T05:46:38.125Z,1128.00
2018-06-18T05:47:38.124Z,1176.00
2018-06-18T05:48:38.127Z,1276.00
2018-06-18T05:49:38.128Z,1444.00
2018-06-18T05:50:38.140Z,1700.00
2018-06-18T05:51:38.131Z,1924.00
2018-06-18T05:52:38.135Z,2280.00
2018-06-18T05:53:38.136Z,2596.00
2018-06-18T05:54:38.140Z,2760.00
2018-06-18T05:55:38.140Z,2820.00
2018-06-18T05:56:38.144Z,2612.00
2018-06-18T05:57:38.159Z,2288.00
2018-06-18T05:58:38.154Z,2172.00
2018-06-18T05:59:38.149Z,2144.00
2018-06-18T06:00:38.151Z,2116.00
2018-06-18T06:01:38.154Z,2212.00
2018-06-18T06:02:38.156Z,2000.00
2018-06-18T06:03:38.157Z,1824.00
2018-06-18T06:04:38.160Z,1668.00
2018-06-18T06:05:38.164Z,1548.00
2018-06-18T06:06:38.166Z,1468.00
2018-06-18T06:07:38.170Z,1364.00
2018-06-18T06:08:38.170Z,1312.00
2018-06-18T06:09:38.197Z,1252.00
2018-06-18T06:10:38.175Z,1232.00
2018-06-18T06:11:39.265Z,1288.00
2018-06-18T06:12:38.180Z,1436.00
2018-06-18T06:13:38.187Z,1616.00
2018-06-18T06:14:38.192Z,2256.00
2018-06-18T06:15:38.191Z,12180.00
2018-06-18T06:16:38.190Z,10232.00
2018-06-18T06:17:38.233Z,11060.00
2018-06-18T06:18:38.213Z,11724.00
2018-06-18T06:19:38.200Z,9152.00
2018-06-18T06:20:38.199Z,6576.00
2018-06-18T06:21:38.204Z,6588.00
2018-06-18T06:22:38.207Z,7412.00
2018-06-18T06:23:38.212Z,7652.00
2018-06-18T06:24:38.211Z,7144.00
2018-06-18T06:25:38.215Z,4880.00
2018-06-18T06:26:38.219Z,4872.00
2018-06-18T06:27:38.224Z,5304.00
2018-06-18T06:28:38.227Z,4076.00
2018-06-18T06:29:38.277Z,5936.00
2018-06-18T06:30:38.234Z,7300.00
2018-06-18T06:31:38.241Z,5816.00
2018-06-18T06:32:38.236Z,7064.00
2018-06-18T06:33:38.260Z,6308.00
2018-06-18T06:34:38.244Z,6964.00
2018-06-18T06:35:38.248Z,5556.00
2018-06-18T06:36:38.254Z,6636.00
2018-06-18T06:37:38.257Z,6980.00
2018-06-18T06:38:38.259Z,6856.00
2018-06-18T06:39:38.262Z,6736.00
2018-06-18T06:40:38.266Z,6764.00
2018-06-18T06:41:38.267Z,6544.00
2018-06-18T06:42:38.269Z,6316.00
2018-06-18T06:43:38.276Z,5900.00
2018-06-18T06:44:38.819Z,6180.00
2018-06-18T06:45:38.329Z,6180.00
2018-06-18T06:46:38.437Z,5872.00
2018-06-18T06:47:38.288Z,5780.00
2018-06-18T06:48:38.290Z,5960.00
2018-06-18T06:49:38.292Z,5844.00
2018-06-18T06:50:38.297Z,5836.00
2018-06-18T06:51:38.305Z,5732.00
2018-06-18T06:52:38.302Z,5580.00
2018-06-18T06:53:38.310Z,5540.00
2018-06-18T06:54:38.308Z,5508.00
2018-06-18T06:55:38.313Z,5488.00
2018-06-18T06:56:38.315Z,5556.00
2018-06-18T06:57:38.319Z,5460.00
2018-06-18T06:58:38.325Z,5480.00
2018-06-18T06:59:38.326Z,5636.00
2018-06-18T07:00:38.346Z,3780.00
2018-06-18T07:01:38.334Z,6128.00
2018-06-18T07:02:38.337Z,6256.00
2018-06-18T07:03:38.386Z,4440.00
2018-06-18T07:04:38.347Z,3924.00
2018-06-18T07:05:38.345Z,4036.00
2018-06-18T07:06:38.349Z,4100.00
2018-06-18T07:07:38.353Z,4592.00
2018-06-18T07:08:38.356Z,4316.00
2018-06-18T07:09:38.359Z,4596.00
2018-06-18T07:10:38.366Z,4748.00
2018-06-18T07:11:38.368Z,4736.00
2018-06-18T07:12:38.370Z,4592.00
2018-06-18T07:13:38.527Z,4732.00
2018-06-18T07:14:38.380Z,4864.00
2018-06-18T07:15:38.382Z,4732.00
2018-06-18T07:16:38.389Z,5012.00
2018-06-18T07:17:38.389Z,4884.00
2018-06-18T07:18:38.393Z,4864.00
2018-06-18T07:19:38.395Z,4956.00
2018-06-18T07:20:38.400Z,4904.00
2018-06-18T07:21:38.405Z,4992.00
2018-06-18T07:22:38.476Z,5296.00
2018-06-18T07:23:38.435Z,5080.00
2018-06-18T07:24:38.431Z,5028.00
2018-06-18T07:25:38.418Z,4968.00
2018-06-18T07:26:38.423Z,4884.00
2018-06-18T07:27:38.428Z,4712.00
2018-06-18T07:28:38.433Z,4588.00
2018-06-18T07:29:39.094Z,4496.00
2018-06-18T07:30:39.930Z,4696.00
2018-06-18T07:31:38.542Z,4780.00
2018-06-18T07:32:39.085Z,5008.00
2018-06-18T07:33:38.453Z,4832.00
2018-06-18T07:34:38.458Z,4852.00
2018-06-18T07:35:38.461Z,4828.00
2018-06-18T07:36:38.463Z,4744.00
2018-06-18T07:37:38.468Z,5360.00
2018-06-18T07:38:38.472Z,4688.00
2018-06-18T07:39:38.487Z,4896.00
2018-06-18T07:40:38.480Z,5176.00
2018-06-18T07:41:38.484Z,5244.00
2018-06-18T07:42:38.662Z,5144.00
2018-06-18T07:43:38.492Z,5112.00
2018-06-18T07:44:38.505Z,5176.00
2018-06-18T07:45:38.520Z,5144.00
2018-06-18T07:46:38.520Z,5012.00
2018-06-18T07:47:38.512Z,4972.00
2018-06-18T07:48:38.514Z,4996.00
2018-06-18T07:49:38.521Z,5088.00
2018-06-18T07:50:38.523Z,5132.00
2018-06-18T07:51:38.594Z,5196.00
2018-06-18T07:52:38.530Z,5220.00
2018-06-18T07:53:38.537Z,5156.00
2018-06-18T07:54:38.556Z,5140.00
2018-06-18T07:55:38.547Z,5084.00
2018-06-18T07:56:38.549Z,5044.00
2018-06-18T07:57:38.565Z,4956.00
2018-06-18T07:58:38.558Z,4820.00
2018-06-18T07:59:38.572Z,4640.00
2018-06-18T08:00:38.566Z,4496.00
2018-06-18T08:01:38.574Z,4340.00
2018-06-18T08:02:38.577Z,4252.00
2018-06-18T08:03:38.625Z,4280.00
2018-06-18T08:04:38.586Z,4460.00
2018-06-18T08:05:38.660Z,4692.00
2018-06-18T08:06:38.609Z,4780.00
2018-06-18T08:07:38.599Z,4948.00
2018-06-18T08:08:38.603Z,4768.00
2018-06-18T08:09:38.665Z,4800.00
2018-06-18T08:10:38.614Z,4984.00
2018-06-18T08:11:38.617Z,5220.00
2018-06-18T08:12:38.623Z,5280.00
2018-06-18T08:13:38.626Z,5208.00
2018-06-18T08:14:38.631Z,5320.00
2018-06-18T08:15:38.635Z,5500.00
2018-06-18T08:16:38.641Z,5672.00
2018-06-18T08:17:38.643Z,5564.00
2018-06-18T08:18:38.648Z,5548.00
2018-06-18T08:19:38.653Z,5656.00
2018-06-18T08:20:38.660Z,5432.00
2018-06-18T08:21:38.661Z,5320.00
2018-06-18T08:22:38.672Z,5276.00
2018-06-18T08:23:38.671Z,5136.00
2018-06-18T08:24:38.677Z,5208.00
2018-06-18T08:25:38.705Z,5404.00
2018-06-18T08:26:38.687Z,5668.00
2018-06-18T08:27:38.691Z,5804.00
2018-06-18T08:28:38.695Z,5900.00
2018-06-18T08:29:38.700Z,6052.00
2018-06-18T08:30:38.707Z,6072.00
2018-06-18T08:31:38.710Z,5764.00
2018-06-18T08:32:38.713Z,6088.00
2018-06-18T08:33:38.720Z,6204.00
2018-06-18T08:34:38.736Z,5784.00
2018-06-18T08:35:38.739Z,5944.00
2018-06-18T08:36:38.742Z,5996.00
2018-06-18T08:37:38.740Z,6296.00
2018-06-18T08:38:38.744Z,6812.00
2018-06-18T08:39:38.775Z,6704.00
2018-06-18T08:40:38.754Z,6284.00
2018-06-18T08:41:38.761Z,5928.00
2018-06-18T08:42:38.766Z,5868.00
2018-06-18T08:43:38.772Z,5504.00
2018-06-18T08:44:38.778Z,6036.00
2018-06-18T08:45:38.781Z,6104.00
2018-06-18T08:46:38.788Z,7096.00
2018-06-18T08:47:38.791Z,6608.00
2018-06-18T08:48:38.803Z,6780.00
2018-06-18T08:49:38.803Z,6764.00
2018-06-18T08:50:38.820Z,6432.00
2018-06-18T08:51:38.814Z,6072.00
2018-06-18T08:52:38.819Z,5960.00
2018-06-18T08:53:38.823Z,5940.00
2018-06-18T08:54:38.830Z,5924.00
2018-06-18T08:55:38.835Z,6052.00
2018-06-18T08:56:38.841Z,6020.00
2018-06-18T08:57:38.846Z,6128.00
2018-06-18T08:58:38.852Z,5992.00
2018-06-18T08:59:38.857Z,5776.00
2018-06-18T09:00:38.862Z,5596.00
2018-06-18T09:01:38.867Z,5716.00
2018-06-18T09:02:38.879Z,6484.00
2018-06-18T09:03:38.884Z,7328.00
2018-06-18T09:04:38.884Z,7868.00
2018-06-18T09:05:38.890Z,8072.00
2018-06-18T09:06:38.896Z,7124.00
2018-06-18T09:07:38.901Z,6140.00
2018-06-18T09:08:38.911Z,6844.00
2018-06-18T09:09:38.912Z,5952.00
2018-06-18T09:10:38.919Z,5868.00
2018-06-18T09:11:38.926Z,4892.00
2018-06-18T09:12:38.931Z,4356.00
2018-06-18T09:13:38.936Z,4404.00
2018-06-18T09:14:38.942Z,4780.00
2018-06-18T09:15:38.975Z,5256.00
2018-06-18T09:16:38.954Z,5664.00
2018-06-18T09:17:39.006Z,4964.00
2018-06-18T09:18:38.994Z,4812.00
2018-06-18T09:19:38.974Z,4224.00
2018-06-18T09:20:38.981Z,3932.00
2018-06-18T09:21:38.990Z,9080.00
2018-06-18T09:22:38.999Z,9788.00
2018-06-18T09:23:39.018Z,8388.00
2018-06-18T09:24:39.002Z,8236.00
2018-06-18T09:25:39.009Z,8828.00
2018-06-18T09:26:39.013Z,7544.00
2018-06-18T09:27:39.019Z,8488.00
2018-06-18T09:28:39.036Z,9604.00
2018-06-18T09:29:39.031Z,11244.00
2018-06-18T09:30:39.039Z,5936.00
2018-06-18T09:31:39.063Z,8076.00
2018-06-18T09:32:39.117Z,6672.00
2018-06-18T09:33:39.060Z,8532.00
2018-06-18T09:34:39.213Z,10412.00
2018-06-18T09:35:39.096Z,9016.00
2018-06-18T09:36:39.079Z,12956.00
2018-06-18T09:37:39.085Z,7716.00
2018-06-18T09:38:39.092Z,9288.00
2018-06-18T09:39:39.100Z,11140.00
2018-06-18T09:40:39.108Z,10048.00
2018-06-18T09:41:39.113Z,13636.00
2018-06-18T09:42:39.122Z,5020.00
2018-06-18T09:43:39.129Z,8008.00
2018-06-18T09:44:39.165Z,26368.00
2018-06-18T09:45:39.150Z,4812.00
2018-06-18T09:46:39.152Z,5088.00
2018-06-18T09:47:39.164Z,5132.00
2018-06-18T09:48:39.172Z,7632.00
2018-06-18T09:49:39.175Z,5240.00
2018-06-18T09:50:39.183Z,4936.00
2018-06-18T09:51:39.192Z,5348.00
2018-06-18T09:52:39.197Z,5808.00
2018-06-18T09:53:39.205Z,5508.00
2018-06-18T09:54:39.218Z,7896.00
2018-06-18T09:55:39.278Z,7980.00
2018-06-18T09:56:39.231Z,10744.00
2018-06-18T09:57:39.235Z,4152.00
2018-06-18T09:58:39.246Z,5060.00
2018-06-18T09:59:39.252Z,20416.00
2018-06-18T10:00:39.257Z,26368.00
2018-06-18T10:01:39.444Z,13740.00
2018-06-18T10:02:39.273Z,21472.00
2018-06-18T10:03:39.280Z,6004.00
2018-06-18T10:04:39.287Z,20704.00
2018-06-18T10:05:39.300Z,2880.00
2018-06-18T10:06:39.304Z,3536.00
2018-06-18T10:07:39.311Z,26592.00
2018-06-18T10:08:39.376Z,8400.00
2018-06-18T10:09:39.346Z,27904.00
2018-06-18T10:10:39.395Z,29184.00
2018-06-18T10:11:39.346Z,28224.00
2018-06-18T10:12:39.359Z,29824.00
2018-06-18T10:13:39.404Z,32192.00
2018-06-18T10:14:39.373Z,31648.00
2018-06-18T10:15:39.379Z,28288.00
2018-06-18T10:16:39.422Z,26592.00
2018-06-18T10:17:39.401Z,28160.00
2018-06-18T10:18:39.410Z,31552.00
2018-06-18T10:19:39.418Z,31328.00
2018-06-18T10:20:39.426Z,32960.00
2018-06-18T10:21:39.438Z,33024.00
2018-06-18T10:22:39.449Z,15936.00
2018-06-18T10:23:39.460Z,17760.00
2018-06-18T10:24:39.476Z,31680.00
2018-06-18T10:25:39.482Z,18944.00
2018-06-18T10:26:39.496Z,2528.00
2018-06-18T10:27:39.505Z,2240.00
2018-06-18T10:28:39.518Z,2440.00
2018-06-18T10:29:39.526Z,26816.00
2018-06-18T10:30:39.539Z,28544.00
2018-06-18T10:31:39.553Z,31552.00
2018-06-18T10:32:39.571Z,29248.00
2018-06-18T10:33:39.570Z,33184.00
2018-06-18T10:34:39.581Z,35104.00
2018-06-18T10:35:39.610Z,37152.00
2018-06-18T10:36:39.601Z,27328.00
2018-06-18T10:37:39.614Z,6528.00
2018-06-18T10:38:39.628Z,38976.00
2018-06-18T10:39:39.638Z,10936.00
2018-06-18T10:40:39.646Z,9104.00
2018-06-18T10:41:39.659Z,31904.00
2018-06-18T10:42:39.677Z,11844.00
2018-06-18T10:43:39.692Z,17664.00
2018-06-18T10:44:39.905Z,33504.00
2018-06-18T10:45:39.705Z,35072.00
2018-06-18T10:46:39.723Z,36160.00
2018-06-18T10:47:39.733Z,38400.00
2018-06-18T10:48:39.741Z,26656.00
2018-06-18T10:49:39.800Z,39104.00
2018-06-18T10:50:39.766Z,8748.00
2018-06-18T10:51:39.778Z,40672.00
2018-06-18T10:52:39.789Z,4704.00
2018-06-18T10:53:39.807Z,34912.00
2018-06-18T10:54:39.814Z,6644.00
2018-06-18T10:55:39.825Z,7468.00
2018-06-18T10:56:39.838Z,4220.00
2018-06-18T10:57:39.851Z,6388.00
2018-06-18T10:58:39.860Z,44832.00
2018-06-18T10:59:39.875Z,43584.00
2018-06-18T11:00:39.886Z,44032.00
2018-06-18T11:01:39.898Z,43488.00
2018-06-18T11:02:39.907Z,44544.00
2018-06-18T11:03:39.950Z,46816.00
2018-06-18T11:04:39.930Z,49568.00
2018-06-18T11:05:39.942Z,45440.00
2018-06-18T11:06:39.993Z,20544.00
2018-06-18T11:07:39.969Z,12508.00
2018-06-18T11:08:39.985Z,12400.00
2018-06-18T11:09:39.999Z,17472.00
2018-06-18T11:10:40.006Z,46752.00
2018-06-18T11:11:40.025Z,43712.00
2018-06-18T11:12:40.029Z,42016.00
2018-06-18T11:13:40.060Z,42176.00
2018-06-18T11:14:40.059Z,44544.00
2018-06-18T11:15:40.071Z,46656.00
2018-06-18T11:16:40.283Z,48128.00
2018-06-18T11:17:40.103Z,40256.00
2018-06-18T11:18:40.107Z,49600.00
2018-06-18T11:19:40.143Z,49696.00
2018-06-18T11:20:40.145Z,50208.00
2018-06-18T11:21:40.152Z,48832.00
2018-06-18T11:22:40.165Z,47872.00
2018-06-18T11:23:40.187Z,48160.00
2018-06-18T11:24:40.232Z,49664.00
2018-06-18T11:25:40.210Z,51488.00
2018-06-18T11:26:40.247Z,52832.00
2018-06-18T11:27:40.246Z,52960.00
2018-06-18T11:28:40.295Z,47424.00
2018-06-18T11:29:40.272Z,50976.00
2018-06-18T11:30:40.288Z,45248.00
2018-06-18T11:31:40.307Z,46176.00
2018-06-18T11:32:40.320Z,50528.00
2018-06-18T11:33:40.338Z,53344.00
2018-06-18T11:34:40.362Z,53568.00
2018-06-18T11:35:40.377Z,53664.00
2018-06-18T11:36:40.417Z,52928.00
2018-06-18T11:37:40.470Z,45088.00
2018-06-18T11:38:40.435Z,13364.00
2018-06-18T11:39:40.467Z,7764.00
2018-06-18T11:40:40.466Z,52384.00
2018-06-18T11:41:40.538Z,52352.00
2018-06-18T11:42:40.487Z,52448.00
2018-06-18T11:43:40.537Z,52000.00
2018-06-18T11:44:40.521Z,51872.00
2018-06-18T11:45:40.539Z,51424.00
2018-06-18T11:46:40.555Z,51648.00
2018-06-18T11:47:40.581Z,5180.00
2018-06-18T11:48:40.591Z,10096.00
2018-06-18T11:49:40.608Z,8516.00
2018-06-18T11:50:40.638Z,51904.00
2018-06-18T11:51:40.765Z,51200.00
2018-06-18T11:52:41.132Z,48608.00
2018-06-18T11:53:40.684Z,47776.00
2018-06-18T11:54:40.691Z,47360.00
2018-06-18T11:55:41.426Z,47520.00
2018-06-18T11:56:40.719Z,49600.00
2018-06-18T11:57:40.760Z,40736.00
2018-06-18T11:58:41.014Z,54080.00
2018-06-18T11:59:40.938Z,54592.00
2018-06-18T12:00:40.785Z,54528.00
2018-06-18T12:01:40.893Z,50240.00
2018-06-18T12:02:40.817Z,50176.00
2018-06-18T12:03:40.837Z,43360.00
2018-06-18T12:04:40.849Z,54080.00
2018-06-18T12:05:40.888Z,58080.00
2018-06-18T12:06:40.880Z,58880.00
2018-06-18T12:07:40.900Z,56736.00
2018-06-18T12:08:40.911Z,55040.00
2018-06-18T12:09:40.940Z,6220.00
2018-06-18T12:10:40.943Z,5104.00
2018-06-18T12:11:40.963Z,50848.00
2018-06-18T12:12:40.978Z,54272.00
2018-06-18T12:13:40.993Z,50720.00
2018-06-18T12:14:41.137Z,53440.00
2018-06-18T12:15:41.024Z,35616.00
2018-06-18T12:16:41.089Z,55680.00
2018-06-18T12:17:41.057Z,46752.00
2018-06-18T12:18:41.070Z,38720.00
2018-06-18T12:19:41.091Z,33216.00
2018-06-18T12:20:41.102Z,37920.00
2018-06-18T12:21:41.118Z,48768.00
2018-06-18T12:22:41.286Z,57408.00